M/V Oriole — WDE6982 — position and weather

sailwx.info

Track history (hours):
 
Tides and Currents Weather Stations Pressure Air Temp Water Temp Dewpoint Dewpoint Depression Visibility Wind Speed Wind Dir Waves Ship Positions

M/V Oriole

Owner: NATIVE SON INC., ST. THOMAS, VI. More information available from US FCC via Universal Licensing System and Coast Guard Vessel Documentation Center.

Last reported at 2015-Mar-28 22:11 UTC. Time now 2015-Mar-29 04:29 UTC.
Position N 18°18' W 064°52'.

Length 25 m.

Type: Passenger vessel. MMSI: 366755670.

Date/timePositionNaut miles runAvg speedWind from/ knotsBaromVisibWave heightAir tempDewpointWater temp
2015-Mar-28 22:11N 18°18' W 064°52'1014.4
2015-Mar-28 21:31N 18°23' W 064°44'2 1.1
2015-Mar-28 19:33N 18°23' W 064°41'9 1.7
2015-Mar-28 14:15N 18°19' W 064°50'2 2.3
2015-Mar-28 13:19N 18°20' W 064°48'3 3.6
2015-Mar-28 12:31N 18°22' W 064°46'4 0.3
2015-Mar-27 21:11N 18°20' W 064°49'610.4
2015-Mar-27 20:33N 18°23' W 064°43'0 0.0
2015-Mar-26 21:33N 18°23' W 064°43'5 5.0
2015-Mar-26 20:29N 18°20' W 064°48'0 0.0
2015-Mar-26 17:03N 18°20' W 064°48'612.6
2015-Mar-26 16:33N 18°23' W 064°42'7 1.5
2015-Mar-26 12:07N 18°20' W 064°48'4 4.7
2015-Mar-26 11:19N 18°22' W 064°45'7 7.0
2015-Mar-26 10:19N 18°24' W 064°38'0 0.0
2015-Mar-25 22:08N 18°24' W 064°38'10 6.1
2015-Mar-25 20:31N 18°20' W 064°48'1 1.4
2015-Mar-25 19:30N 18°20' W 064°49'1 0.4
2015-Mar-25 17:31N 18°20' W 064°50'8 6.7
2015-Mar-25 16:19N 18°23' W 064°42'7 2.5
2015-Mar-25 13:32N 18°20' W 064°49'5 5.1
2015-Mar-25 12:29N 18°23' W 064°44'4 0.3
2015-Mar-24 22:09N 18°23' W 064°40'1010.1
2015-Mar-24 21:08N 18°20' W 064°50'2 4.3
2015-Mar-24 20:33N 18°20' W 064°48'1 1.4
2015-Mar-24 19:31N 18°21' W 064°48'1 0.7
2015-Mar-24 17:33N 18°20' W 064°48'7 6.2
2015-Mar-24 16:28N 18°23' W 064°42'7 2.2
2015-Mar-24 13:16N 18°20' W 064°49'7 8.2
2015-Mar-24 12:24N 18°23' W 064°42'5 4.2
2015-Mar-24 11:07N 18°21' W 064°47'712.3
2015-Mar-24 10:32N 18°23' W 064°40'2 0.2
2015-Mar-23 22:13N 18°23' W 064°42'7 7.5
2015-Mar-23 21:14N 18°20' W 064°50'3 4.7
2015-Mar-23 20:33N 18°22' W 064°47'3 3.0
2015-Mar-23 19:33N 18°20' W 064°50'2 0.9
2015-Mar-23 17:33N 18°20' W 064°48'6 5.7
2015-Mar-23 16:28N 18°23' W 064°42'6 1.4
2015-Mar-23 12:11N 18°20' W 064°48'0 0.0
2015-Mar-22 15:20N 18°20' W 064°48'  
2015-Mar-19 18:29N 18°23' W 064°41'1010.0
2015-Mar-19 17:31N 18°20' W 064°50'8 8.1
2015-Mar-19 16:30N 18°23' W 064°42'7 2.4
2015-Mar-19 13:29N 18°20' W 064°49'1 0.6
2015-Mar-19 11:21N 18°20' W 064°48'7 7.3
2015-Mar-19 10:24N 18°23' W 064°41'  
Track history (hours):
 
Tides and Currents Weather Stations Pressure Air Temp Water Temp Dewpoint Dewpoint Depression Visibility Wind Speed Wind Dir Waves Ship Positions

M/V Oriole

Owner: NATIVE SON INC., ST. THOMAS, VI. More information available from US FCC via Universal Licensing System and Coast Guard Vessel Documentation Center.

Last reported at 2015-Mar-28 22:11 UTC. Time now 2015-Mar-29 04:29 UTC.
Position N 18°18' W 064°52'.

Length 25 m.

Type: Passenger vessel. MMSI: 366755670.

Date/timePositionNaut miles runAvg speedWind from/ knotsBaromVisibWave heightAir tempDewpointWater temp
2015-Mar-28 22:11N 18°18' W 064°52'1014.4
2015-Mar-28 21:31N 18°23' W 064°44'2 1.1
2015-Mar-28 19:33N 18°23' W 064°41'9 1.7
2015-Mar-28 14:15N 18°19' W 064°50'2 2.3
2015-Mar-28 13:19N 18°20' W 064°48'3 3.6
2015-Mar-28 12:31N 18°22' W 064°46'4 0.3
2015-Mar-27 21:11N 18°20' W 064°49'610.4
2015-Mar-27 20:33N 18°23' W 064°43'0 0.0
2015-Mar-26 21:33N 18°23' W 064°43'5 5.0
2015-Mar-26 20:29N 18°20' W 064°48'0 0.0
2015-Mar-26 17:03N 18°20' W 064°48'612.6
2015-Mar-26 16:33N 18°23' W 064°42'7 1.5
2015-Mar-26 12:07N 18°20' W 064°48'4 4.7
2015-Mar-26 11:19N 18°22' W 064°45'7 7.0
2015-Mar-26 10:19N 18°24' W 064°38'0 0.0
2015-Mar-25 22:08N 18°24' W 064°38'10 6.1
2015-Mar-25 20:31N 18°20' W 064°48'1 1.4
2015-Mar-25 19:30N 18°20' W 064°49'1 0.4
2015-Mar-25 17:31N 18°20' W 064°50'8 6.7
2015-Mar-25 16:19N 18°23' W 064°42'7 2.5
2015-Mar-25 13:32N 18°20' W 064°49'5 5.1
2015-Mar-25 12:29N 18°23' W 064°44'4 0.3
2015-Mar-24 22:09N 18°23' W 064°40'1010.1
2015-Mar-24 21:08N 18°20' W 064°50'2 4.3
2015-Mar-24 20:33N 18°20' W 064°48'1 1.4
2015-Mar-24 19:31N 18°21' W 064°48'1 0.7
2015-Mar-24 17:33N 18°20' W 064°48'7 6.2
2015-Mar-24 16:28N 18°23' W 064°42'7 2.2
2015-Mar-24 13:16N 18°20' W 064°49'7 8.2
2015-Mar-24 12:24N 18°23' W 064°42'5 4.2
2015-Mar-24 11:07N 18°21' W 064°47'712.3
2015-Mar-24 10:32N 18°23' W 064°40'2 0.2
2015-Mar-23 22:13N 18°23' W 064°42'7 7.5
2015-Mar-23 21:14N 18°20' W 064°50'3 4.7
2015-Mar-23 20:33N 18°22' W 064°47'3 3.0
2015-Mar-23 19:33N 18°20' W 064°50'2 0.9
2015-Mar-23 17:33N 18°20' W 064°48'6 5.7
2015-Mar-23 16:28N 18°23' W 064°42'6 1.4
2015-Mar-23 12:11N 18°20' W 064°48'0 0.0
2015-Mar-22 15:20N 18°20' W 064°48'  
2015-Mar-19 18:29N 18°23' W 064°41'1010.0
2015-Mar-19 17:31N 18°20' W 064°50'8 8.1
2015-Mar-19 16:30N 18°23' W 064°42'7 2.4
2015-Mar-19 13:29N 18°20' W 064°49'1 0.6
2015-Mar-19 11:21N 18°20' W 064°48'7 7.3
2015-Mar-19 10:24N 18°23' W 064°41'  

Dump ship's entire track history